Time;durP1;ratioP1;P1;durP2;ratioP2;P2;SDS_P1;SDS_P2;PMS_P1;PMS_P2;Temp;Humidity;BMP_temperature;BMP_pressure;BME280_temperature;BME280_humidity;BME280_pressure;Samples;Min_cycle;Max_cycle;Signal;HPM_P1;HPM_P2
2022/08/13 00:01:51;;;;;;;5.28;2.08;;;16.80;62.30;;;;;;4116845;28;20113;-81
2022/08/13 00:03:53;;;;;;;6.50;1.88;;;16.80;62.50;;;;;;4109080;28;20453;-83
2022/08/13 00:05:54;;;;;;;5.57;2.42;;;16.70;62.50;;;;;;4113423;28;20038;-82
2022/08/13 00:07:55;;;;;;;4.03;2.30;;;16.70;62.60;;;;;;4123604;28;20124;-82
2022/08/13 00:09:58;;;;;;;4.85;2.30;;;16.70;62.80;;;;;;4113063;28;20031;-82
2022/08/13 00:14:20;;;;;;;4.00;2.10;;;16.60;63.10;;;;;;4105451;28;20053;-82
2022/08/13 00:16:21;;;;;;;8.55;2.22;;;16.60;63.20;;;;;;4111542;28;20038;-81
2022/08/13 00:18:23;;;;;;;3.75;2.05;;;16.60;63.30;;;;;;4114715;28;20039;-82
2022/08/13 00:20:27;;;;;;;6.45;2.15;;;16.60;63.60;;;;;;4112525;28;20089;-82
2022/08/13 00:22:28;;;;;;;3.92;2.47;;;16.60;63.80;;;;;;4121020;28;20396;-82
2022/08/13 00:24:29;;;;;;;6.40;2.38;;;16.50;63.90;;;;;;4107715;28;20031;-81
2022/08/13 00:26:31;;;;;;;4.88;2.33;;;16.50;64.20;;;;;;4091165;28;20076;-81
2022/08/13 00:28:32;;;;;;;3.30;2.10;;;16.50;64.50;;;;;;4108771;28;20400;-82
2022/08/13 00:30:35;;;;;;;4.13;2.03;;;16.50;64.70;;;;;;4106871;28;20043;-82
2022/08/13 00:32:37;;;;;;;4.03;2.22;;;16.50;65.10;;;;;;4122473;28;20238;-82
2022/08/13 00:34:38;;;;;;;3.20;2.22;;;16.50;65.20;;;;;;4107007;28;20046;-81
2022/08/13 00:36:39;;;;;;;5.32;2.20;;;16.50;65.40;;;;;;4107451;28;20031;-82
2022/08/13 00:38:44;;;;;;;4.82;2.20;;;16.50;65.60;;;;;;4104764;28;20049;-82
2022/08/13 00:40:49;;;;;;;4.53;2.35;;;16.50;65.80;;;;;;4104331;28;20035;-81
2022/08/13 00:42:50;;;;;;;6.03;2.78;;;16.40;65.80;;;;;;4107225;28;20023;-81
2022/08/13 00:44:51;;;;;;;4.72;2.60;;;16.40;66.00;;;;;;4110249;28;20153;-82
2022/08/13 00:48:41;;;;;;;7.00;2.20;;;16.40;66.20;;;;;;4105072;28;20038;-81
2022/08/13 00:49:14;;;;;;;7.75;2.90;;;16.40;66.30;;;;;;4108929;28;20265;-81
2022/08/13 00:51:16;;;;;;;8.80;2.47;;;16.40;66.40;;;;;;4107364;28;20172;-81
2022/08/13 00:53:18;;;;;;;5.07;2.42;;;16.40;66.70;;;;;;4110134;28;20409;-81
2022/08/13 00:55:20;;;;;;;6.30;2.00;;;16.40;67.00;;;;;;4100999;28;20636;-82
2022/08/13 00:57:20;;;;;;;4.00;2.05;;;16.40;67.10;;;;;;4103789;28;20031;-82
2022/08/13 00:59:21;;;;;;;6.97;2.38;;;16.40;67.30;;;;;;4107810;28;20519;-81
2022/08/13 01:01:24;;;;;;;4.35;2.30;;;16.40;67.40;;;;;;4114270;28;20035;-82
2022/08/13 01:03:26;;;;;;;10.30;2.47;;;16.40;67.60;;;;;;4123457;28;20825;-81
2022/08/13 01:05:26;;;;;;;8.30;2.20;;;16.40;67.70;;;;;;4122656;28;20470;-81
2022/08/13 01:07:29;;;;;;;5.82;2.10;;;16.40;67.90;;;;;;4106621;28;20123;-82
2022/08/13 01:09:30;;;;;;;5.82;2.95;;;16.40;68.10;;;;;;4110676;28;20035;-82
2022/08/13 01:11:32;;;;;;;4.45;2.50;;;16.40;68.70;;;;;;4110521;28;21093;-83
2022/08/13 01:13:38;;;;;;;10.07;2.55;;;16.40;68.80;;;;;;4104958;28;20051;-83
2022/08/13 01:15:41;;;;;;;5.63;2.70;;;16.40;69.20;;;;;;4107599;28;20062;-82
2022/08/13 01:17:45;;;;;;;5.68;2.30;;;16.40;69.50;;;;;;4121068;28;20085;-84
2022/08/13 01:19:46;;;;;;;3.03;2.15;;;16.40;69.40;;;;;;4117055;28;20027;-83
2022/08/13 01:21:50;;;;;;;4.88;1.95;;;16.40;69.30;;;;;;4112783;28;20031;-82
2022/08/13 01:23:54;;;;;;;9.55;2.35;;;16.40;69.30;;;;;;4109489;28;20031;-83
2022/08/13 01:25:59;;;;;;;3.83;2.28;;;16.40;69.40;;;;;;4108772;28;20074;-84
2022/08/13 01:28:00;;;;;;;3.42;2.05;;;16.40;69.60;;;;;;4107600;28;20372;-83
2022/08/13 01:30:03;;;;;;;3.70;2.15;;;16.40;69.80;;;;;;4110299;28;20035;-82
2022/08/13 01:32:05;;;;;;;2.55;1.90;;;16.40;69.70;;;;;;4114110;28;20444;-83
2022/08/13 01:34:06;;;;;;;4.60;2.15;;;16.40;69.70;;;;;;4112829;28;20027;-82
2022/08/13 01:36:08;;;;;;;4.97;2.15;;;16.40;69.60;;;;;;4110602;28;21164;-84
2022/08/13 01:38:09;;;;;;;7.75;2.03;;;16.40;69.60;;;;;;4115763;28;20035;-83
2022/08/13 01:40:10;;;;;;;3.28;2.45;;;16.40;70.40;;;;;;4120533;28;20019;-84
2022/08/13 01:42:22;;;;;;;5.63;2.38;;;16.40;69.70;;;;;;4118943;28;20058;-83
2022/08/13 01:44:25;;;;;;;5.53;2.20;;;16.40;70.00;;;;;;4119679;28;20026;-83
2022/08/13 01:46:26;;;;;;;2.63;1.83;;;16.40;70.30;;;;;;4103520;28;20032;-84
2022/08/13 01:50:50;;;;;;;4.65;2.25;;;16.40;70.50;;;;;;4118589;28;20031;-84
2022/08/13 01:52:52;;;;;;;6.43;2.35;;;16.40;71.20;;;;;;4119299;28;20046;-84
2022/08/13 01:54:52;;;;;;;5.53;2.38;;;16.40;70.50;;;;;;4130208;28;20559;-83
2022/08/13 01:56:57;;;;;;;9.68;2.63;;;16.40;70.50;;;;;;4124678;28;20030;-84
2022/08/13 01:59:01;;;;;;;5.82;2.65;;;16.40;70.70;;;;;;4113296;28;20041;-84
2022/08/13 02:01:04;;;;;;;4.68;2.63;;;16.40;70.90;;;;;;4115258;28;20488;-84
2022/08/13 02:03:09;;;;;;;5.55;2.72;;;16.40;71.10;;;;;;4112462;28;20558;-84
2022/08/13 02:05:11;;;;;;;10.93;2.80;;;16.40;71.10;;;;;;4114223;28;20477;-84
2022/08/13 02:07:13;;;;;;;6.57;2.63;;;16.40;71.10;;;;;;4115477;28;20369;-84
2022/08/13 02:09:14;;;;;;;5.50;2.72;;;16.40;71.20;;;;;;4114572;28;20546;-84
2022/08/13 02:11:15;;;;;;;9.43;2.88;;;16.40;71.20;;;;;;4133311;28;20878;-84
2022/08/13 02:13:18;;;;;;;4.85;2.55;;;16.40;71.40;;;;;;4117759;28;20030;-83
2022/08/13 02:15:19;;;;;;;6.03;2.42;;;16.40;71.40;;;;;;4131379;28;20404;-85
2022/08/13 02:17:27;;;;;;;5.95;2.47;;;16.30;71.20;;;;;;4097182;28;20042;-83
2022/08/13 02:19:28;;;;;;;6.07;2.58;;;16.40;71.10;;;;;;4113822;28;20488;-83
2022/08/13 02:21:33;;;;;;;9.73;3.35;;;16.30;71.00;;;;;;4116569;28;20029;-83
2022/08/13 02:23:34;;;;;;;3.60;2.60;;;16.30;71.20;;;;;;4116101;28;21625;-84
2022/08/13 02:25:36;;;;;;;6.40;2.92;;;16.30;71.50;;;;;;4111571;28;20030;-85
2022/08/13 02:27:37;;;;;;;11.25;2.63;;;16.30;71.70;;;;;;4111564;28;20027;-82
2022/08/13 02:29:37;;;;;;;7.45;3.15;;;16.30;71.80;;;;;;4115416;28;20031;-83
2022/08/13 02:31:42;;;;;;;5.22;2.60;;;16.30;71.70;;;;;;4112842;28;20019;-83
2022/08/13 02:33:42;;;;;;;5.25;2.35;;;16.30;71.70;;;;;;4108754;28;20039;-83
2022/08/13 02:35:44;;;;;;;3.80;2.25;;;16.30;71.70;;;;;;4111291;28;20026;-83
2022/08/13 02:37:47;;;;;;;5.95;2.80;;;16.30;71.60;;;;;;4110446;28;20733;-84
2022/08/13 02:39:49;;;;;;;4.50;2.45;;;16.20;71.30;;;;;;4114110;28;20019;-84
2022/08/13 02:41:54;;;;;;;4.45;2.47;;;16.20;71.10;;;;;;4114131;28;20114;-84
2022/08/13 02:43:55;;;;;;;4.90;2.78;;;16.20;71.00;;;;;;4116973;28;20456;-84
2022/08/13 02:45:56;;;;;;;5.35;2.60;;;16.20;70.90;;;;;;4110151;28;20455;-84
2022/08/13 02:47:57;;;;;;;4.40;2.15;;;16.20;70.80;;;;;;4112557;28;20041;-83
2022/08/13 02:49:59;;;;;;;5.30;2.35;;;16.10;70.60;;;;;;4114954;28;20063;-84
2022/08/13 02:51:59;;;;;;;3.55;2.20;;;16.10;70.40;;;;;;4098705;28;20035;-84
2022/08/13 02:54:01;;;;;;;5.00;2.70;;;16.10;70.20;;;;;;4112420;28;20085;-84
2022/08/13 02:56:01;;;;;;;4.53;2.25;;;16.10;70.10;;;;;;4112092;28;20041;-83
2022/08/13 02:58:07;;;;;;;5.70;2.50;;;16.00;69.90;;;;;;4111312;28;20118;-83
2022/08/13 03:00:09;;;;;;;3.38;2.30;;;16.00;69.70;;;;;;4115661;28;20019;-83
2022/08/13 03:02:10;;;;;;;4.47;2.77;;;16.00;69.60;;;;;;4119040;28;20094;-83
2022/08/13 03:04:14;;;;;;;5.45;2.67;;;15.90;69.50;;;;;;4111893;28;20031;-83
2022/08/13 03:06:19;;;;;;;3.47;2.45;;;16.00;69.50;;;;;;4110241;28;20070;-84
2022/08/13 03:08:20;;;;;;;2.90;2.15;;;15.90;69.60;;;;;;4107627;28;20030;-82
2022/08/13 03:10:23;;;;;;;2.88;2.22;;;15.90;69.80;;;;;;4109837;28;20114;-83
2022/08/13 03:12:25;;;;;;;3.75;2.20;;;15.90;70.10;;;;;;4109019;28;20057;-84
2022/08/13 03:14:31;;;;;;;7.72;1.90;;;15.90;70.30;;;;;;4110061;28;20510;-83
2022/08/13 03:16:34;;;;;;;3.22;2.42;;;15.90;71.20;;;;;;4107063;28;21499;-83
2022/08/13 03:18:35;;;;;;;20.10;2.85;;;15.90;70.80;;;;;;4110291;28;20035;-83
2022/08/13 03:20:36;;;;;;;4.90;3.25;;;15.90;71.30;;;;;;4110378;28;20396;-84
2022/08/13 03:22:55;;;;;;;5.13;2.65;;;15.80;71.50;;;;;;4108404;28;20027;-83
2022/08/13 03:24:56;;;;;;;3.67;2.88;;;15.80;72.10;;;;;;4111912;28;20027;-83
2022/08/13 03:26:58;;;;;;;4.90;3.03;;;15.90;71.80;;;;;;4107034;28;20029;-83
2022/08/13 03:29:00;;;;;;;4.60;3.50;;;15.80;71.70;;;;;;4107137;28;20059;-84
2022/08/13 03:31:01;;;;;;;5.35;3.67;;;15.80;71.60;;;;;;4111883;28;20046;-83
2022/08/13 03:33:07;;;;;;;12.35;4.10;;;15.80;71.40;;;;;;4107559;28;20682;-84
2022/08/13 03:35:14;;;;;;;7.72;4.20;;;15.80;71.40;;;;;;4123195;28;20038;-83
2022/08/13 03:37:15;;;;;;;5.40;3.63;;;15.80;71.20;;;;;;4109254;28;20695;-83
2022/08/13 03:39:16;;;;;;;6.05;3.03;;;15.70;71.10;;;;;;4107929;28;20031;-83
2022/08/13 03:41:17;;;;;;;4.80;3.28;;;15.70;71.10;;;;;;4108059;28;20693;-84
2022/08/13 03:43:19;;;;;;;6.95;3.33;;;15.70;71.20;;;;;;4113185;28;20118;-84
2022/08/13 03:45:21;;;;;;;7.95;4.10;;;15.70;71.20;;;;;;4109461;28;20054;-83
2022/08/13 03:47:22;;;;;;;6.85;3.33;;;15.70;71.10;;;;;;4107421;28;20103;-82
2022/08/13 03:49:24;;;;;;;3.83;2.80;;;15.70;71.00;;;;;;4111592;28;20275;-83
2022/08/13 03:51:25;;;;;;;4.47;2.92;;;15.60;70.80;;;;;;4106469;28;20029;-82
2022/08/13 03:53:26;;;;;;;3.47;2.72;;;15.60;70.80;;;;;;4107497;28;20058;-83
2022/08/13 03:55:27;;;;;;;4.07;3.20;;;15.60;70.80;;;;;;4110904;28;20065;-83
2022/08/13 03:57:28;;;;;;;4.30;3.05;;;15.60;70.80;;;;;;4110921;28;20026;-83
2022/08/13 03:59:31;;;;;;;6.10;2.97;;;15.60;70.70;;;;;;4109735;28;20058;-82
2022/08/13 04:01:32;;;;;;;5.95;3.22;;;15.60;70.70;;;;;;4108013;28;20031;-82
2022/08/13 04:03:36;;;;;;;5.85;3.30;;;15.50;70.60;;;;;;4114478;28;20026;-84
2022/08/13 04:05:37;;;;;;;4.72;3.20;;;15.50;70.50;;;;;;4116092;28;20035;-83
2022/08/13 04:07:39;;;;;;;6.75;2.80;;;15.50;70.50;;;;;;4106117;28;20027;-84
2022/08/13 04:09:40;;;;;;;3.55;2.70;;;15.50;70.50;;;;;;4108739;28;20031;-83
2022/08/13 04:11:41;;;;;;;6.70;2.60;;;15.50;70.50;;;;;;4111636;28;20887;-83
2022/08/13 04:13:42;;;;;;;5.70;3.08;;;15.50;70.50;;;;;;4101887;28;20042;-82
2022/08/13 04:15:44;;;;;;;5.55;3.05;;;15.50;70.70;;;;;;4112652;28;20027;-84
2022/08/13 04:17:45;;;;;;;5.38;2.80;;;15.50;70.80;;;;;;4107464;28;20383;-83
2022/08/13 04:19:46;;;;;;;5.10;3.10;;;15.50;70.90;;;;;;4114029;28;20019;-83
2022/08/13 04:21:47;;;;;;;4.60;3.42;;;15.50;71.00;;;;;;4114054;28;20520;-82
2022/08/13 04:23:49;;;;;;;4.70;2.75;;;15.50;71.20;;;;;;4116646;28;20031;-83
2022/08/13 04:25:50;;;;;;;5.55;3.05;;;15.50;71.30;;;;;;4116616;28;20026;-83
2022/08/13 04:27:51;;;;;;;4.63;3.05;;;15.50;71.40;;;;;;4113370;28;20030;-83
2022/08/13 04:29:55;;;;;;;4.18;3.08;;;15.50;71.50;;;;;;4114700;28;20027;-83
2022/08/13 04:31:57;;;;;;;6.28;3.88;;;15.50;71.70;;;;;;4128377;28;20026;-83
2022/08/13 04:33:57;;;;;;;5.82;3.60;;;15.50;71.90;;;;;;4112142;28;20350;-83
2022/08/13 04:35:58;;;;;;;9.43;3.58;;;15.50;72.10;;;;;;4116574;28;20034;-82
2022/08/13 04:37:59;;;;;;;6.38;3.33;;;15.50;72.30;;;;;;4113084;28;20119;-82
2022/08/13 04:40:00;;;;;;;7.15;3.13;;;15.50;72.50;;;;;;4110356;28;20027;-83
2022/08/13 04:42:00;;;;;;;5.93;3.22;;;15.50;72.70;;;;;;4107976;28;20034;-83
2022/08/13 04:44:01;;;;;;;6.63;3.42;;;15.60;72.90;;;;;;4114506;28;20027;-85
2022/08/13 04:46:02;;;;;;;5.25;2.75;;;15.60;73.10;;;;;;4115258;28;20100;-84
2022/08/13 04:48:09;;;;;;;6.40;3.47;;;15.60;73.00;;;;;;4116932;28;20035;-85
2022/08/13 04:50:10;;;;;;;4.85;3.10;;;15.70;73.30;;;;;;4114460;28;20097;-83
2022/08/13 04:52:11;;;;;;;8.07;2.75;;;15.70;73.40;;;;;;4113578;28;20058;-84
2022/08/13 04:54:12;;;;;;;5.88;2.95;;;15.70;73.50;;;;;;4113779;28;20050;-83
2022/08/13 04:56:12;;;;;;;3.67;2.88;;;15.80;73.70;;;;;;4113512;28;20035;-85
2022/08/13 04:58:15;;;;;;;4.20;2.80;;;15.90;73.90;;;;;;4114320;28;20027;-84
2022/08/13 05:00:16;;;;;;;8.55;2.70;;;15.90;74.00;;;;;;4113586;28;20026;-83
2022/08/13 05:02:17;;;;;;;7.13;3.05;;;16.00;74.20;;;;;;4111232;28;20093;-84
2022/08/13 05:04:18;;;;;;;4.45;3.08;;;16.10;74.60;;;;;;4112856;28;20026;-84
2022/08/13 05:06:19;;;;;;;6.88;3.47;;;16.10;74.80;;;;;;4118057;28;20054;-85
2022/08/13 05:08:21;;;;;;;4.30;2.95;;;16.20;74.90;;;;;;4128512;28;20014;-83
2022/08/13 05:10:22;;;;;;;5.82;3.17;;;16.30;75.00;;;;;;4110121;28;20446;-85
2022/08/13 05:12:23;;;;;;;5.63;3.30;;;16.30;75.10;;;;;;4113401;28;20027;-84
2022/08/13 05:14:24;;;;;;;6.00;3.38;;;16.40;75.30;;;;;;4129148;28;20037;-84
2022/08/13 05:16:25;;;;;;;5.55;3.00;;;16.50;75.50;;;;;;4113155;28;20752;-84
2022/08/13 05:18:28;;;;;;;8.15;2.92;;;16.60;75.50;;;;;;4110271;28;20041;-83
2022/08/13 05:20:29;;;;;;;;;;;16.70;75.50;;;;;;4109281;28;20077;-85
2022/08/13 05:22:30;;;;;;;7.57;3.10;;;16.80;76.40;;;;;;4108977;28;19926;-84
2022/08/13 05:24:32;;;;;;;9.43;3.22;;;16.90;75.40;;;;;;4112314;28;20038;-85
2022/08/13 05:26:33;;;;;;;8.80;3.30;;;17.00;75.70;;;;;;4110704;28;20053;-85
2022/08/13 05:28:35;;;;;;;8.45;3.13;;;17.10;75.90;;;;;;4122038;28;20023;-84
2022/08/13 05:30:39;;;;;;;6.82;3.13;;;17.20;76.00;;;;;;4114463;28;20054;-85
2022/08/13 05:32:39;;;;;;;7.40;3.25;;;17.20;75.90;;;;;;4115231;28;20034;-84
2022/08/13 05:34:40;;;;;;;8.15;3.38;;;17.30;76.50;;;;;;4113163;28;20027;-84
2022/08/13 05:36:43;;;;;;;5.25;3.10;;;17.40;75.90;;;;;;4109343;28;20035;-84
2022/08/13 05:38:43;;;;;;;7.35;3.00;;;17.50;76.10;;;;;;4110233;28;20489;-86
2022/08/13 05:40:44;;;;;;;4.40;2.75;;;17.60;76.00;;;;;;4109834;28;20045;-85
2022/08/13 05:42:45;;;;;;;5.03;2.95;;;17.60;76.00;;;;;;4111575;28;20030;-86
2022/08/13 05:44:47;;;;;;;5.28;2.58;;;17.70;76.00;;;;;;4092704;28;20027;-85
2022/08/13 05:46:52;;;;;;;6.15;2.92;;;17.80;76.00;;;;;;4107221;28;20037;-85
2022/08/13 05:48:58;;;;;;;5.18;3.25;;;17.80;75.90;;;;;;4110163;28;20070;-85
2022/08/13 05:51:03;;;;;;;4.57;3.13;;;17.90;76.00;;;;;;4102612;28;20033;-84
2022/08/13 05:53:11;;;;;;;8.02;3.20;;;18.00;76.10;;;;;;4110669;28;20046;-85
2022/08/13 05:55:14;;;;;;;7.63;3.15;;;18.10;76.40;;;;;;4106465;28;20027;-84
2022/08/13 05:57:15;;;;;;;9.48;3.20;;;18.20;76.40;;;;;;4100992;28;20037;-85
2022/08/13 06:03:54;;;;;;;5.28;2.90;;;18.30;76.50;;;;;;4107895;28;20916;-84
2022/08/13 06:05:56;;;;;;;10.20;2.80;;;18.50;76.80;;;;;;4101860;28;20051;-84
2022/08/13 06:07:57;;;;;;;8.10;2.80;;;18.50;77.30;;;;;;4104102;28;20046;-85
2022/08/13 06:09:58;;;;;;;9.15;3.05;;;18.60;77.20;;;;;;4105844;28;20039;-84
2022/08/13 06:12:03;;;;;;;4.28;2.50;;;18.70;77.70;;;;;;4103527;28;20457;-84
2022/08/13 06:14:04;;;;;;;8.93;3.20;;;18.80;77.70;;;;;;4106876;28;20070;-84
2022/08/13 06:16:10;;;;;;;7.18;2.70;;;18.80;77.80;;;;;;4108113;28;20031;-84
2022/08/13 06:18:12;;;;;;;6.20;2.88;;;18.90;77.60;;;;;;4105866;28;20039;-84
2022/08/13 06:20:17;;;;;;;5.18;2.55;;;19.00;77.30;;;;;;4112973;28;20068;-84
2022/08/13 06:22:22;;;;;;;4.77;2.80;;;19.10;77.10;;;;;;4107198;28;20031;-84
2022/08/13 06:24:23;;;;;;;6.82;2.40;;;19.20;77.00;;;;;;4110903;28;20038;-84
2022/08/13 06:26:24;;;;;;;12.18;2.65;;;19.30;76.80;;;;;;4105792;28;20048;-84
2022/08/13 06:28:30;;;;;;;9.32;2.83;;;19.40;76.60;;;;;;4107977;28;20039;-84
2022/08/13 06:30:35;;;;;;;4.68;2.70;;;19.50;76.20;;;;;;4111260;28;20031;-84
2022/08/13 06:32:37;;;;;;;9.10;3.00;;;19.60;76.00;;;;;;4092285;28;20045;-83
2022/08/13 06:34:37;;;;;;;7.95;2.80;;;19.70;75.60;;;;;;4119921;28;20026;-84
2022/08/13 06:36:38;;;;;;;8.82;2.47;;;19.80;75.10;;;;;;4110262;28;20117;-83
2022/08/13 06:38:49;;;;;;;3.63;2.40;;;19.90;74.50;;;;;;4133715;28;20038;-84
2022/08/13 06:40:50;;;;;;;5.80;2.55;;;20.00;74.10;;;;;;4111352;28;20147;-84
2022/08/13 06:42:51;;;;;;;6.82;2.70;;;20.00;73.60;;;;;;4107337;28;20062;-84
2022/08/13 06:44:54;;;;;;;12.63;2.58;;;20.10;72.70;;;;;;4113932;28;20038;-84
2022/08/13 06:46:55;;;;;;;5.13;2.45;;;20.20;72.20;;;;;;4113402;28;20038;-84
2022/08/13 06:48:58;;;;;;;5.10;2.85;;;20.30;71.70;;;;;;4113873;28;20045;-84
2022/08/13 06:51:00;;;;;;;11.18;2.58;;;20.40;71.30;;;;;;4090499;28;20027;-84
2022/08/13 06:53:05;;;;;;;4.50;2.30;;;20.50;71.00;;;;;;4101052;28;20476;-84
2022/08/13 06:55:07;;;;;;;4.40;1.92;;;20.60;70.20;;;;;;4110404;28;20129;-84
2022/08/13 06:57:08;;;;;;;5.72;2.05;;;20.70;69.60;;;;;;4105794;28;20085;-83
2022/08/13 06:59:13;;;;;;;4.45;2.17;;;20.80;68.70;;;;;;4105983;28;20087;-84
2022/08/13 07:01:19;;;;;;;3.80;2.22;;;20.90;67.80;;;;;;4112275;28;20043;-83
2022/08/13 07:03:28;;;;;;;5.38;2.00;;;21.00;66.40;;;;;;4108967;28;20031;-84
2022/08/13 07:05:41;;;;;;;6.28;1.98;;;21.00;64.70;;;;;;4106591;28;20019;-84
2022/08/13 07:07:44;;;;;;;7.15;2.22;;;21.10;62.50;;;;;;4108160;28;20019;-83
2022/08/13 07:09:46;;;;;;;7.13;2.08;;;21.20;63.10;;;;;;4105385;28;20035;-84
2022/08/13 07:11:47;;;;;;;8.00;1.60;;;21.30;62.20;;;;;;4121642;28;20053;-85
2022/08/13 07:13:51;;;;;;;6.20;2.20;;;21.30;60.40;;;;;;4108024;28;20027;-82
2022/08/13 07:15:52;;;;;;;5.20;1.73;;;21.40;59.80;;;;;;4106010;28;20039;-85
2022/08/13 07:17:56;;;;;;;4.60;2.00;;;21.50;60.20;;;;;;4104734;28;20103;-85
2022/08/13 07:19:56;;;;;;;4.72;2.33;;;21.50;59.80;;;;;;4104437;28;20050;-86
2022/08/13 07:21:57;;;;;;;3.38;1.80;;;21.70;61.10;;;;;;4109695;28;20440;-85
2022/08/13 07:24:03;;;;;;;10.23;2.15;;;21.70;60.20;;;;;;4113019;28;20081;-85
2022/08/13 07:26:05;;;;;;;7.20;1.90;;;21.80;59.70;;;;;;4108569;28;20035;-85
2022/08/13 07:28:06;;;;;;;9.43;2.28;;;21.90;58.60;;;;;;4110217;28;20026;-86
2022/08/13 07:30:14;;;;;;;6.68;2.22;;;22.00;59.10;;;;;;4110631;28;20027;-85
2022/08/13 07:32:16;;;;;;;5.40;1.98;;;22.10;59.20;;;;;;4114656;28;20085;-85
2022/08/13 07:34:17;;;;;;;4.07;1.90;;;22.20;58.30;;;;;;4112588;28;20033;-85
2022/08/13 07:36:19;;;;;;;4.05;1.50;;;22.30;58.50;;;;;;4112006;28;20173;-85
2022/08/13 07:38:20;;;;;;;6.57;2.15;;;22.40;58.40;;;;;;4108864;28;20031;-85
2022/08/13 07:40:21;;;;;;;7.72;1.63;;;22.50;58.20;;;;;;4106273;28;20428;-85
2022/08/13 07:42:23;;;;;;;4.75;1.83;;;22.50;57.90;;;;;;4111403;28;20057;-84
2022/08/13 07:44:24;;;;;;;4.13;1.88;;;22.60;57.60;;;;;;4111325;28;20027;-84
2022/08/13 07:46:27;;;;;;;3.45;1.70;;;22.80;57.80;;;;;;4106033;28;20054;-85
2022/08/13 07:48:29;;;;;;;5.03;1.63;;;22.80;56.00;;;;;;4107507;28;20444;-83
2022/08/13 07:50:30;;;;;;;5.35;1.85;;;22.90;55.80;;;;;;4113056;28;20033;-84
2022/08/13 07:52:34;;;;;;;2.75;1.65;;;23.00;55.80;;;;;;4109016;28;20042;-84
2022/08/13 07:54:35;;;;;;;2.88;1.80;;;23.00;55.00;;;;;;4108504;28;20031;-84
2022/08/13 07:56:36;;;;;;;3.00;1.52;;;23.10;54.80;;;;;;4098431;28;20045;-85
2022/08/13 07:58:37;;;;;;;8.48;1.92;;;23.20;55.10;;;;;;4110604;28;20034;-85
2022/08/13 08:00:38;;;;;;;4.03;1.67;;;23.30;54.90;;;;;;4114984;28;20101;-85
2022/08/13 08:02:40;;;;;;;4.88;1.67;;;23.40;54.70;;;;;;4106839;28;20500;-83
2022/08/13 08:04:42;;;;;;;6.45;1.45;;;23.50;53.80;;;;;;4111402;28;20023;-84
2022/08/13 08:06:45;;;;;;;7.23;2.07;;;23.60;54.20;;;;;;4110641;28;20038;-84
2022/08/13 08:08:46;;;;;;;;;;;23.70;54.40;;;;;;4112506;28;20755;-84
2022/08/13 08:10:47;;;;;;;4.82;1.60;;;23.70;51.70;;;;;;4111495;28;19962;-85
2022/08/13 08:12:48;;;;;;;12.20;2.00;;;23.90;52.40;;;;;;4108249;28;20784;-85
2022/08/13 08:14:50;;;;;;;4.50;1.70;;;23.90;51.50;;;;;;4110829;28;20039;-85
2022/08/13 08:16:51;;;;;;;6.30;1.92;;;24.00;52.20;;;;;;4111036;28;20019;-84
2022/08/13 08:18:52;;;;;;;5.28;1.50;;;24.10;52.70;;;;;;4088147;28;20118;-83
2022/08/13 08:21:08;;;;;;;5.43;1.70;;;24.20;52.80;;;;;;4073780;29;20117;-83
2022/08/13 08:23:11;;;;;;;5.70;1.52;;;24.30;52.30;;;;;;4084894;28;20104;-83
2022/08/13 08:25:17;;;;;;;3.72;1.63;;;24.40;51.90;;;;;;4090818;28;20051;-83
2022/08/13 08:27:19;;;;;;;12.55;1.70;;;24.50;51.80;;;;;;4078699;29;20031;-83
2022/08/13 08:29:21;;;;;;;3.50;1.50;;;24.60;52.10;;;;;;4091661;28;20031;-83
2022/08/13 08:31:23;;;;;;;6.40;1.58;;;24.70;51.80;;;;;;4095705;28;20032;-84
2022/08/13 08:33:27;;;;;;;2.53;1.50;;;24.80;51.50;;;;;;4092240;28;20122;-84
2022/08/13 08:35:29;;;;;;;4.63;1.65;;;24.90;51.80;;;;;;4096097;28;20035;-84
2022/08/13 08:43:00;;;;;;;2.55;1.60;;;25.20;48.90;;;;;;4097646;28;20036;-84
2022/08/13 08:44:34;;;;;;;4.20;1.48;;;25.30;48.10;;;;;;4084992;28;20078;-83
2022/08/13 08:46:36;;;;;;;5.68;1.50;;;25.40;48.20;;;;;;4096649;28;20072;-85
2022/08/13 08:48:39;;;;;;;2.28;1.10;;;25.50;48.30;;;;;;4096023;28;20027;-83
2022/08/13 08:50:41;;;;;;;7.88;1.30;;;25.60;47.30;;;;;;4095796;28;20035;-84
2022/08/13 08:55:04;;;;;;;9.20;1.67;;;25.70;46.40;;;;;;4079764;29;20040;-82
2022/08/13 08:57:06;;;;;;;16.95;2.13;;;25.80;48.10;;;;;;4081251;29;20031;-84
2022/08/13 08:59:09;;;;;;;6.47;2.10;;;25.90;47.90;;;;;;4093570;29;20023;-84
2022/08/13 09:01:13;;;;;;;3.15;1.65;;;25.90;48.50;;;;;;4092704;28;20106;-84
2022/08/13 09:03:18;;;;;;;3.28;1.83;;;26.00;50.20;;;;;;4093193;28;20059;-84
2022/08/13 09:05:21;;;;;;;11.23;2.13;;;26.00;49.50;;;;;;4089843;28;20020;-86
2022/08/13 09:07:24;;;;;;;4.65;1.50;;;26.00;49.80;;;;;;4077478;29;20092;-83
2022/08/13 09:09:27;;;;;;;4.97;1.60;;;26.10;50.60;;;;;;4090439;28;20028;-83
2022/08/13 09:11:34;;;;;;;2.45;1.52;;;26.10;50.60;;;;;;4092544;28;20382;-83
2022/08/13 09:13:35;;;;;;;6.18;2.00;;;26.10;50.70;;;;;;4093665;28;20039;-85
2022/08/13 09:15:39;;;;;;;50.20;2.88;;;26.10;50.20;;;;;;4093279;28;20032;-83
2022/08/13 09:17:40;;;;;;;28.48;3.00;;;26.10;50.60;;;;;;4091854;28;20042;-82
2022/08/13 09:19:41;;;;;;;7.35;1.98;;;26.10;49.80;;;;;;4116663;28;20491;-83
2022/08/13 09:21:46;;;;;;;13.23;2.25;;;26.10;49.20;;;;;;4112119;28;20038;-83
2022/08/13 09:23:47;;;;;;;101.25;6.47;;;26.20;50.00;;;;;;4109006;28;20042;-83
2022/08/13 09:25:51;;;;;;;28.05;3.05;;;26.20;50.60;;;;;;4106389;28;20350;-83
2022/08/13 09:28:02;;;;;;;4.25;1.77;;;26.20;50.70;;;;;;4109974;28;20130;-82
2022/08/13 09:30:05;;;;;;;5.60;2.10;;;26.30;50.90;;;;;;4101435;28;20098;-83
2022/08/13 09:32:06;;;;;;;;;;;26.30;50.50;;;;;;4120716;28;20411;-85
2022/08/13 09:34:18;;;;;;;5.82;1.60;;;26.30;50.70;;;;;;4115613;28;19918;-83
2022/08/13 09:36:22;;;;;;;3.38;2.05;;;26.30;50.60;;;;;;4101934;28;20035;-83
2022/08/13 09:38:26;;;;;;;7.07;1.80;;;26.40;49.90;;;;;;4103574;28;20721;-83
2022/08/13 09:40:30;;;;;;;3.08;1.80;;;26.40;49.90;;;;;;4091028;28;20062;-86
2022/08/13 09:43:01;;;;;;;8.77;1.80;;;26.40;50.30;;;;;;4100249;28;20035;-87
2022/08/13 09:45:03;;;;;;;6.72;1.88;;;26.40;49.50;;;;;;4102546;28;20042;-88
2022/08/13 09:47:04;;;;;;;5.15;2.35;;;26.30;49.90;;;;;;4096975;28;20792;-82
2022/08/13 09:49:08;;;;;;;16.95;3.28;;;26.40;50.30;;;;;;4103744;28;20373;-86
2022/08/13 09:51:13;;;;;;;16.40;2.30;;;26.30;50.50;;;;;;4103477;28;20109;-85
2022/08/13 09:53:14;;;;;;;3.15;1.50;;;26.30;50.40;;;;;;4100556;28;20054;-88
2022/08/13 09:55:15;;;;;;;2.28;1.65;;;26.30;51.00;;;;;;4095170;28;20047;-88
2022/08/13 09:57:20;;;;;;;6.63;1.95;;;26.20;50.90;;;;;;4105286;28;20554;-87
2022/08/13 09:59:22;;;;;;;5.47;1.73;;;26.20;51.60;;;;;;4104552;28;20054;-86
2022/08/13 10:01:23;;;;;;;2.92;1.65;;;26.20;51.80;;;;;;4096881;28;20050;-85
2022/08/13 10:03:23;;;;;;;4.03;1.50;;;26.20;51.40;;;;;;4100211;28;20035;-86
2022/08/13 10:05:32;;;;;;;6.53;1.65;;;26.20;51.40;;;;;;4110360;28;20098;-86
2022/08/13 10:07:33;;;;;;;4.32;1.70;;;26.20;51.50;;;;;;4097876;28;20034;-86
2022/08/13 10:09:36;;;;;;;3.08;1.60;;;26.10;52.30;;;;;;4107122;28;21133;-86
2022/08/13 10:11:36;;;;;;;3.22;1.80;;;26.10;51.20;;;;;;4072185;28;20038;-84
2022/08/13 10:13:37;;;;;;;4.10;1.50;;;26.10;51.20;;;;;;4099512;28;20515;-88
2022/08/13 10:15:39;;;;;;;9.40;1.75;;;26.20;50.80;;;;;;4097674;28;20043;-86
2022/08/13 10:17:52;;;;;;;10.68;2.00;;;26.20;50.50;;;;;;4096383;28;20039;-86
2022/08/13 10:19:56;;;;;;;7.18;1.88;;;26.20;50.30;;;;;;4102667;28;20153;-90
2022/08/13 10:21:57;;;;;;;9.07;1.88;;;26.20;50.10;;;;;;4101181;28;20065;-91
2022/08/13 10:23:58;;;;;;;5.22;2.22;;;26.30;50.70;;;;;;4106348;28;20968;-90
2022/08/13 10:26:00;;;;;;;5.25;1.50;;;26.30;50.60;;;;;;4105648;28;20026;-91
2022/08/13 10:28:13;;;;;;;9.93;2.00;;;26.30;50.50;;;;;;4105994;28;20501;-88
2022/08/13 10:30:14;;;;;;;10.07;1.92;;;26.30;50.50;;;;;;4089348;28;20066;-88
2022/08/13 10:32:15;;;;;;;13.57;2.65;;;26.40;50.60;;;;;;4118129;28;20035;-91
2022/08/13 10:34:22;;;;;;;10.57;2.20;;;26.40;50.30;;;;;;4101382;28;20053;-90
2022/08/13 10:36:25;;;;;;;2.50;1.67;;;26.40;50.30;;;;;;4116968;28;20034;-91
2022/08/13 10:38:26;;;;;;;4.10;1.70;;;26.40;51.00;;;;;;4098043;28;20065;-89
2022/08/13 10:40:27;;;;;;;2.78;1.77;;;26.40;49.90;;;;;;4101437;28;20022;-89
2022/08/13 10:42:28;;;;;;;12.35;2.38;;;26.40;50.20;;;;;;4102190;28;20567;-89
2022/08/13 10:44:30;;;;;;;6.80;1.80;;;26.40;50.60;;;;;;4104702;28;20109;-87
2022/08/13 10:46:31;;;;;;;14.95;2.03;;;26.40;50.30;;;;;;4100909;28;20019;-88
2022/08/13 10:48:32;;;;;;;4.95;1.75;;;26.40;50.20;;;;;;4109609;28;20046;-88
2022/08/13 10:50:33;;;;;;;2.28;1.63;;;26.40;50.30;;;;;;4121605;28;20100;-87
2022/08/13 10:52:34;;;;;;;5.00;1.50;;;26.50;50.60;;;;;;4103277;28;20030;-88
2022/08/13 10:54:35;;;;;;;3.92;1.67;;;26.50;50.60;;;;;;4097912;28;20503;-85